Carseland, Canada
Current Conditions -  °F | °C
As of 6:00 AM on Sunday 23 Nov 2014 (Local Time) from CYYC Reporting Station
Broken Clouds Broken Clouds  
Wind Chill: 14°   Ceiling: 800
Heat Index: 23°   Visibility: 8mi
Dew Point: 19°   Wind: 8mph
Humidity: 86%   Direction: 170°S
Pressure: 29.78"   Gusts: NA
Location:  50.85°N, 113.47°W
Report Text: CYYC 231300Z 17007KT 8SM BKN008 M05/M07 A2978 RMK SC5 SLP134
Loading
Personal Weather Stations






























Interactive Weather Map New forecast layout! Learn more

10-Day Weather Forecast

Advertisements
Track Severe Weather on mobile